Time;durP1;ratioP1;P1;durP2;ratioP2;P2;SDS_P1;SDS_P2;PMS_P1;PMS_P2;Temp;Humidity;BMP_temperature;BMP_pressure;BME280_temperature;BME280_humidity;BME280_pressure;Samples;Min_cycle;Max_cycle;Signal;HPM_P1;HPM_P2
2023/05/24 00:01:30;;;;;;;12.60;10.20;;;20.50;99.90;;;;;;5096580;28;20440;-79
2023/05/24 00:03:59;;;;;;;14.70;11.87;;;20.40;99.90;;;;;;5096412;28;20215;-79
2023/05/24 00:06:26;;;;;;;14.90;11.73;;;20.50;99.90;;;;;;5096444;28;20248;-80
2023/05/24 00:08:55;;;;;;;12.53;10.20;;;20.40;99.90;;;;;;5114619;28;20396;-83
2023/05/24 00:11:21;;;;;;;13.00;11.73;;;20.50;99.90;;;;;;5130569;27;20444;-80
2023/05/24 00:13:48;;;;;;;12.90;10.97;;;20.50;99.90;;;;;;5114695;28;20457;-82
2023/05/24 00:16:14;;;;;;;14.13;10.83;;;20.50;99.90;;;;;;5114461;28;20473;-83
2023/05/24 00:18:40;;;;;;;13.70;11.07;;;20.50;99.90;;;;;;5114538;28;20400;-80
2023/05/24 00:21:10;;;;;;;20.40;11.60;;;20.50;99.90;;;;;;5114362;28;20446;-84
2023/05/24 00:23:37;;;;;;;12.73;11.43;;;20.50;99.90;;;;;;5096129;28;20532;-84
2023/05/24 00:26:03;;;;;;;13.40;11.77;;;20.50;99.90;;;;;;5096091;28;20439;-83
2023/05/24 00:28:30;;;;;;;13.03;11.33;;;20.40;99.90;;;;;;5114439;28;20408;-83
2023/05/24 00:30:56;;;;;;;16.67;12.23;;;20.40;99.90;;;;;;5130112;27;20986;-83
2023/05/24 00:33:22;;;;;;;13.37;12.00;;;20.50;99.90;;;;;;5114390;28;20404;-80
2023/05/24 00:35:48;;;;;;;16.37;12.63;;;20.50;99.90;;;;;;5095982;28;20446;-82
2023/05/24 00:38:14;;;;;;;14.13;12.00;;;20.50;99.90;;;;;;5130323;27;20233;-80
2023/05/24 00:40:40;;;;;;;15.50;12.03;;;20.40;99.90;;;;;;5114139;28;20947;-84
2023/05/24 00:43:06;;;;;;;11.70;10.20;;;20.40;99.90;;;;;;5095862;28;20532;-83
2023/05/24 00:45:31;;;;;;;14.37;11.30;;;20.40;99.90;;;;;;5114122;28;20248;-79
2023/05/24 00:47:57;;;;;;;12.63;11.43;;;20.30;99.90;;;;;;5114285;28;20180;-79
2023/05/24 00:50:24;;;;;;;16.53;12.80;;;20.30;99.90;;;;;;5114114;28;20279;-80
2023/05/24 00:52:50;;;;;;;16.53;13.63;;;20.30;99.90;;;;;;5114577;28;20434;-84
2023/05/24 00:55:16;;;;;;;15.13;13.60;;;20.20;99.90;;;;;;5114119;28;20435;-84
2023/05/24 00:57:43;;;;;;;14.20;12.67;;;20.20;99.90;;;;;;5114682;28;20479;-84
2023/05/24 01:00:10;;;;;;;14.83;13.10;;;20.20;99.90;;;;;;5095857;28;20952;-84
2023/05/24 01:02:36;;;;;;;17.87;12.90;;;20.30;99.90;;;;;;5130036;28;20442;-84
2023/05/24 01:05:03;;;;;;;13.80;12.40;;;20.20;99.90;;;;;;5095678;28;20476;-79
2023/05/24 01:07:36;;;;;;;19.87;12.23;;;20.30;99.90;;;;;;5095572;28;20501;-80
2023/05/24 01:10:16;;;;;;;12.93;11.53;;;20.20;99.90;;;;;;5129759;28;20460;-83
2023/05/24 01:12:52;;;;;;;13.27;12.00;;;20.20;99.90;;;;;;5114517;28;20420;-84
2023/05/24 01:15:36;;;;;;;13.67;12.23;;;20.20;99.90;;;;;;5117186;28;20999;-83
2023/05/24 01:18:16;;;;;;;13.20;11.90;;;20.20;99.90;;;;;;5117962;28;20503;-83
2023/05/24 01:20:42;;;;;;;14.60;11.10;;;20.20;99.90;;;;;;5117960;28;20426;-79
2023/05/24 01:23:37;;;;;;;14.20;11.53;;;20.20;99.90;;;;;;5117822;28;20478;-79
2023/05/24 01:26:13;;;;;;;13.43;10.80;;;20.10;99.90;;;;;;5117890;28;20473;-79
2023/05/24 01:28:39;;;;;;;14.57;12.03;;;20.10;99.90;;;;;;5117850;28;20427;-84
2023/05/24 01:31:06;;;;;;;13.07;10.87;;;20.10;99.90;;;;;;5117731;28;20523;-83
2023/05/24 01:33:32;;;;;;;15.47;10.90;;;20.10;99.90;;;;;;5099312;28;20415;-80
2023/05/24 01:35:58;;;;;;;11.40;10.30;;;20.10;99.90;;;;;;5099286;28;21015;-80
2023/05/24 01:38:24;;;;;;;12.80;10.67;;;20.10;99.90;;;;;;5117636;28;20179;-80
2023/05/24 01:40:57;;;;;;;13.70;10.80;;;20.10;99.90;;;;;;5133245;27;20198;-80
2023/05/24 01:43:35;;;;;;;13.50;11.20;;;20.10;99.90;;;;;;5099165;28;20474;-84
2023/05/24 01:46:00;;;;;;;12.27;10.57;;;20.10;99.90;;;;;;5117562;28;20542;-83
2023/05/24 01:48:36;;;;;;;12.80;10.40;;;20.10;99.90;;;;;;5099247;28;20542;-84
2023/05/24 01:51:06;;;;;;;12.00;10.90;;;20.20;99.90;;;;;;5117389;28;20194;-79
2023/05/24 01:53:38;;;;;;;11.50;10.40;;;20.20;99.90;;;;;;5117275;28;20420;-79
2023/05/24 01:56:05;;;;;;;12.70;10.20;;;20.20;99.90;;;;;;5117328;28;20967;-84
2023/05/24 01:58:32;;;;;;;10.80;9.80;;;20.20;99.90;;;;;;5098848;28;20974;-80
2023/05/24 02:00:58;;;;;;;12.80;11.03;;;20.10;99.90;;;;;;5117241;28;20453;-83
2023/05/24 02:03:24;;;;;;;13.00;10.80;;;20.10;99.90;;;;;;5117122;28;20466;-80
2023/05/24 02:05:50;;;;;;;11.63;10.10;;;20.10;99.90;;;;;;5116941;28;20438;-84
2023/05/24 02:08:16;;;;;;;12.10;10.43;;;20.10;99.90;;;;;;5098836;28;20187;-80
2023/05/24 02:10:42;;;;;;;13.40;10.80;;;20.20;99.90;;;;;;5116941;28;20439;-84
2023/05/24 02:13:08;;;;;;;12.30;10.60;;;20.10;99.90;;;;;;5116895;28;20414;-79
2023/05/24 02:15:34;;;;;;;12.40;11.10;;;20.10;99.90;;;;;;5098143;28;20199;-80
2023/05/24 02:18:00;;;;;;;12.17;10.83;;;20.10;99.90;;;;;;5098602;28;20217;-83
2023/05/24 02:20:35;;;;;;;13.57;11.53;;;20.10;99.90;;;;;;5098427;28;20426;-79
2023/05/24 02:23:10;;;;;;;11.80;10.13;;;20.10;99.90;;;;;;5098364;28;20429;-79
2023/05/24 02:25:36;;;;;;;12.93;10.57;;;20.20;99.90;;;;;;5131326;27;20456;-79
2023/05/24 02:28:01;;;;;;;12.40;10.90;;;20.20;99.90;;;;;;5116679;28;20414;-82
2023/05/24 02:30:27;;;;;;;11.83;10.10;;;20.20;99.90;;;;;;5116531;28;20226;-80
2023/05/24 02:32:53;;;;;;;12.00;10.80;;;20.20;99.90;;;;;;5098227;28;20229;-83
2023/05/24 02:35:19;;;;;;;12.00;10.80;;;20.10;99.90;;;;;;5116591;28;20201;-79
2023/05/24 02:37:45;;;;;;;10.80;9.73;;;20.20;99.90;;;;;;5098417;28;20269;-83
2023/05/24 02:40:11;;;;;;;11.60;10.40;;;20.10;99.90;;;;;;5098105;28;20518;-79
2023/05/24 02:42:37;;;;;;;12.40;10.73;;;20.20;99.90;;;;;;5098369;28;20430;-79
2023/05/24 02:45:02;;;;;;;11.33;10.23;;;20.10;99.90;;;;;;5116160;28;20480;-80
2023/05/24 02:47:28;;;;;;;12.63;10.07;;;20.10;99.90;;;;;;5116861;28;20176;-79
2023/05/24 02:49:55;;;;;;;12.27;10.37;;;20.10;99.90;;;;;;5097937;28;20259;-80
2023/05/24 02:52:22;;;;;;;11.33;10.23;;;20.10;99.90;;;;;;5116694;28;20170;-83
2023/05/24 02:54:48;;;;;;;11.90;10.80;;;20.10;99.90;;;;;;5116091;28;20452;-79
2023/05/24 02:57:14;;;;;;;13.13;11.37;;;20.10;99.90;;;;;;5097986;28;20418;-84
2023/05/24 02:59:40;;;;;;;13.20;11.90;;;20.00;99.90;;;;;;5116150;28;20412;-80
2023/05/24 03:02:05;;;;;;;12.43;11.10;;;20.00;99.90;;;;;;5097858;28;20484;-83
2023/05/24 03:04:31;;;;;;;12.07;10.73;;;20.10;99.90;;;;;;5115762;28;20679;-84
2023/05/24 03:06:57;;;;;;;12.23;10.77;;;20.10;99.90;;;;;;5116160;28;20522;-84
2023/05/24 03:09:22;;;;;;;12.23;11.00;;;20.10;99.90;;;;;;5115834;28;20196;-80
2023/05/24 03:11:48;;;;;;;12.17;10.97;;;20.20;99.90;;;;;;5097493;28;20195;-83
2023/05/24 03:14:16;;;;;;;11.77;10.20;;;20.20;99.90;;;;;;5115700;28;20172;-80
2023/05/24 03:16:41;;;;;;;12.90;11.50;;;20.20;99.90;;;;;;5115665;28;20694;-84
2023/05/24 03:19:07;;;;;;;13.27;10.30;;;20.20;99.90;;;;;;5097381;28;20407;-84
2023/05/24 03:21:33;;;;;;;13.30;10.90;;;20.20;99.90;;;;;;5097498;28;20192;-80
2023/05/24 03:23:58;;;;;;;12.43;11.13;;;20.20;99.90;;;;;;5115389;28;20213;-80
2023/05/24 03:26:25;;;;;;;11.73;10.53;;;20.20;99.90;;;;;;5115620;28;20549;-84
2023/05/24 03:28:53;;;;;;;10.57;9.47;;;20.20;99.90;;;;;;5097213;28;20723;-79
2023/05/24 03:31:19;;;;;;;12.30;9.97;;;20.20;99.90;;;;;;5131356;27;20803;-83
2023/05/24 03:33:45;;;;;;;13.60;11.50;;;20.30;99.90;;;;;;5097157;28;20795;-83
2023/05/24 03:36:10;;;;;;;11.77;10.57;;;20.30;99.90;;;;;;5115356;28;20446;-79
2023/05/24 03:38:36;;;;;;;13.40;11.00;;;20.30;99.90;;;;;;5096694;28;20213;-82
2023/05/24 03:41:02;;;;;;;12.90;11.60;;;20.20;99.90;;;;;;5115038;28;20202;-80
2023/05/24 03:43:28;;;;;;;12.90;11.60;;;20.20;99.90;;;;;;5115120;28;20638;-83
2023/05/24 03:45:54;;;;;;;14.27;11.30;;;20.20;99.90;;;;;;5115068;28;20472;-83
2023/05/24 03:48:19;;;;;;;12.63;10.10;;;20.10;99.90;;;;;;5097069;28;20450;-80
2023/05/24 03:50:46;;;;;;;14.90;10.77;;;20.20;99.90;;;;;;5114953;28;20414;-84
2023/05/24 03:53:12;;;;;;;12.40;11.10;;;20.10;99.90;;;;;;5096749;28;20210;-79
2023/05/24 03:55:38;;;;;;;81.80;56.27;;;20.10;99.90;;;;;;5114646;28;20816;-82
2023/05/24 03:58:03;;;;;;;17.37;14.13;;;20.10;99.90;;;;;;5114146;28;20262;-82
2023/05/24 04:00:29;;;;;;;13.87;11.43;;;20.10;99.90;;;;;;5114677;28;20198;-83
2023/05/24 04:02:55;;;;;;;11.77;10.60;;;20.10;99.90;;;;;;5096444;28;20532;-83
2023/05/24 04:05:25;;;;;;;12.90;10.80;;;20.10;99.90;;;;;;5096660;28;20442;-84
2023/05/24 04:07:51;;;;;;;11.53;10.40;;;20.10;99.90;;;;;;5096442;28;20655;-84
2023/05/24 04:10:17;;;;;;;12.37;10.73;;;20.10;99.90;;;;;;5096241;28;20482;-80
2023/05/24 04:12:44;;;;;;;12.97;11.60;;;20.10;99.90;;;;;;5114478;28;20456;-84
2023/05/24 04:15:14;;;;;;;11.97;10.17;;;20.20;99.90;;;;;;5096332;28;20214;-84
2023/05/24 04:17:41;;;;;;;16.60;11.37;;;20.20;99.90;;;;;;5093242;28;20553;-80
2023/05/24 04:20:08;;;;;;;14.13;10.90;;;20.30;99.90;;;;;;5092256;28;20515;-79
2023/05/24 04:22:35;;;;;;;14.63;11.13;;;20.40;99.90;;;;;;5091322;28;20786;-79
2023/05/24 04:25:01;;;;;;;11.33;10.23;;;20.40;99.90;;;;;;5092657;28;21038;-84
2023/05/24 04:27:27;;;;;;;14.53;10.50;;;20.40;99.90;;;;;;5094120;28;20408;-80
2023/05/24 04:29:53;;;;;;;12.33;11.13;;;20.50;99.90;;;;;;5092602;28;20451;-83
2023/05/24 04:32:18;;;;;;;49.27;31.90;;;20.50;99.90;;;;;;5102938;28;20222;-79
2023/05/24 04:34:45;;;;;;;34.60;25.37;;;20.50;99.90;;;;;;5092282;28;20777;-80
2023/05/24 04:37:12;;;;;;;13.50;12.10;;;20.50;99.90;;;;;;5093982;28;20179;-80
2023/05/24 04:39:39;;;;;;;12.73;11.33;;;20.50;99.90;;;;;;5092119;28;20432;-85
2023/05/24 04:42:06;;;;;;;17.63;11.83;;;20.60;99.90;;;;;;5092197;28;20443;-84
2023/05/24 04:44:31;;;;;;;12.97;11.17;;;20.60;99.90;;;;;;5093245;28;20464;-80
2023/05/24 04:46:57;;;;;;;11.37;10.37;;;20.70;99.90;;;;;;5090769;28;20514;-85
2023/05/24 04:49:23;;;;;;;12.60;11.30;;;20.70;99.90;;;;;;5087706;28;20237;-80
2023/05/24 04:51:49;;;;;;;13.57;11.70;;;20.60;99.90;;;;;;5094747;28;20456;-80
2023/05/24 04:54:16;;;;;;;14.30;11.17;;;20.60;99.90;;;;;;5093215;28;20199;-80
2023/05/24 04:56:42;;;;;;;12.20;10.97;;;20.60;99.90;;;;;;5088913;28;20680;-80
2023/05/24 04:59:08;;;;;;;12.27;10.83;;;20.50;99.90;;;;;;5097088;28;20423;-83
2023/05/24 05:01:34;;;;;;;14.10;10.87;;;20.60;99.90;;;;;;5083176;28;20204;-83
2023/05/24 05:04:06;;;;;;;11.77;10.50;;;20.60;99.90;;;;;;5091883;28;20472;-84
2023/05/24 05:06:33;;;;;;;16.63;12.17;;;20.60;99.90;;;;;;5087935;28;20472;-80
2023/05/24 05:08:59;;;;;;;12.90;11.57;;;20.70;99.90;;;;;;5088134;28;20828;-80
2023/05/24 05:11:26;;;;;;;14.93;12.60;;;20.70;99.90;;;;;;5106759;28;20464;-84
2023/05/24 05:13:53;;;;;;;12.40;10.60;;;20.70;99.90;;;;;;5089174;28;20482;-80
2023/05/24 05:16:19;;;;;;;11.40;10.33;;;20.80;99.90;;;;;;5099321;28;20829;-80
2023/05/24 05:18:45;;;;;;;12.50;11.20;;;20.80;99.90;;;;;;5092479;28;20796;-80
2023/05/24 05:21:10;;;;;;;16.23;11.20;;;20.90;99.90;;;;;;5099785;28;20442;-84
2023/05/24 05:23:38;;;;;;;12.37;11.07;;;21.00;99.90;;;;;;5116478;28;20369;-84
2023/05/24 05:26:05;;;;;;;15.87;11.30;;;20.90;99.90;;;;;;5093143;28;20272;-80
2023/05/24 05:28:31;;;;;;;13.30;11.20;;;20.90;99.90;;;;;;5104116;28;20920;-84
2023/05/24 05:30:57;;;;;;;13.13;11.77;;;21.00;99.90;;;;;;5111753;28;20459;-84
2023/05/24 05:33:23;;;;;;;12.33;11.13;;;21.00;99.90;;;;;;5113708;28;20232;-80
2023/05/24 05:35:48;;;;;;;15.20;11.50;;;21.00;99.90;;;;;;5097729;28;20534;-80
2023/05/24 05:38:14;;;;;;;13.70;11.53;;;21.00;99.90;;;;;;5116473;28;20305;-83
2023/05/24 05:40:40;;;;;;;15.17;11.80;;;21.10;99.90;;;;;;5111975;28;20210;-80
2023/05/24 05:43:07;;;;;;;16.37;12.10;;;21.10;99.90;;;;;;5111671;28;20429;-84
2023/05/24 05:45:32;;;;;;;14.70;11.20;;;21.10;99.90;;;;;;5088182;28;20207;-84
2023/05/24 05:47:58;;;;;;;13.30;10.90;;;21.20;99.90;;;;;;5089637;28;20451;-80
2023/05/24 05:50:24;;;;;;;84.13;52.13;;;21.10;99.90;;;;;;5101079;28;20290;-86
2023/05/24 05:52:50;;;;;;;26.83;19.93;;;21.20;99.90;;;;;;5115597;28;20192;-82
2023/05/24 05:55:15;;;;;;;16.60;12.50;;;21.20;99.90;;;;;;5080576;28;20453;-85
2023/05/24 05:57:42;;;;;;;12.70;11.00;;;21.30;99.90;;;;;;5106065;28;20272;-85
2023/05/24 06:00:08;;;;;;;14.30;11.73;;;21.30;99.90;;;;;;5106639;28;20455;-84
2023/05/24 06:02:34;;;;;;;11.10;10.00;;;21.30;99.90;;;;;;5112842;27;20424;-85
2023/05/24 06:05:00;;;;;;;12.47;10.77;;;21.30;99.90;;;;;;5088060;28;21012;-84
2023/05/24 06:07:25;;;;;;;13.00;11.43;;;21.30;99.90;;;;;;5115423;27;20186;-84
2023/05/24 06:09:51;;;;;;;11.77;10.57;;;21.30;99.90;;;;;;5121079;27;20227;-83
2023/05/24 06:12:16;;;;;;;15.87;10.10;;;21.20;99.90;;;;;;5107866;28;20179;-84
2023/05/24 06:14:43;;;;;;;12.97;11.63;;;21.30;99.90;;;;;;5084760;28;20181;-80
2023/05/24 06:17:08;;;;;;;12.13;10.63;;;21.30;99.90;;;;;;5089857;28;20472;-79
2023/05/24 06:19:34;;;;;;;14.90;10.77;;;21.40;99.90;;;;;;5097780;27;20445;-79
2023/05/24 06:22:00;;;;;;;12.97;9.70;;;21.40;99.90;;;;;;5114918;27;20639;-84
2023/05/24 06:24:27;;;;;;;13.30;10.77;;;21.50;99.90;;;;;;5128822;27;20249;-80
2023/05/24 06:26:53;;;;;;;12.27;10.50;;;21.60;99.90;;;;;;5099813;28;20531;-79
2023/05/24 06:29:20;;;;;;;11.07;10.03;;;21.60;99.90;;;;;;5094560;28;20686;-80
2023/05/24 06:31:47;;;;;;;11.50;9.60;;;21.60;99.90;;;;;;5104738;28;20534;-79
2023/05/24 06:34:16;;;;;;;11.10;9.90;;;21.70;99.90;;;;;;5113903;28;20498;-79
2023/05/24 06:36:42;;;;;;;10.13;8.80;;;21.70;99.90;;;;;;5127406;27;20798;-80
2023/05/24 06:39:09;;;;;;;11.53;9.73;;;21.80;99.90;;;;;;5099584;28;21016;-79
2023/05/24 06:41:36;;;;;;;24.70;16.83;;;21.80;99.90;;;;;;5092205;28;21018;-84
2023/05/24 06:44:02;;;;;;;8.33;7.37;;;21.90;99.90;;;;;;5109792;28;20475;-83
2023/05/24 06:46:27;;;;;;;10.70;7.80;;;21.90;99.90;;;;;;5109106;28;20444;-84
2023/05/24 06:48:53;;;;;;;13.30;7.50;;;21.80;99.90;;;;;;5108090;28;20176;-79
2023/05/24 06:51:19;;;;;;;9.87;8.10;;;21.80;99.90;;;;;;5106785;28;20203;-79
2023/05/24 06:53:44;;;;;;;9.40;8.47;;;21.80;99.90;;;;;;5106710;28;20205;-79
2023/05/24 06:56:10;;;;;;;8.70;7.53;;;21.90;99.90;;;;;;5125802;27;20624;-79
2023/05/24 06:58:35;;;;;;;10.03;7.90;;;22.00;99.90;;;;;;5092855;28;20210;-83
2023/05/24 07:01:03;;;;;;;9.80;8.47;;;21.90;99.90;;;;;;5091406;28;20203;-80
2023/05/24 07:03:30;;;;;;;9.50;8.07;;;21.80;99.90;;;;;;5126652;27;20611;-79
2023/05/24 07:05:55;;;;;;;10.47;9.40;;;21.80;99.90;;;;;;5098790;28;20440;-83
2023/05/24 07:08:21;;;;;;;14.90;10.77;;;21.80;99.90;;;;;;5124013;27;21128;-83
2023/05/24 07:10:47;;;;;;;9.57;8.70;;;21.90;99.90;;;;;;5111063;28;20672;-79
2023/05/24 07:13:12;;;;;;;10.20;8.93;;;22.10;99.90;;;;;;5111047;28;20172;-79
2023/05/24 07:15:41;;;;;;;8.97;8.07;;;22.20;99.90;;;;;;5094385;28;20207;-84
2023/05/24 07:18:07;;;;;;;10.60;8.80;;;22.00;99.90;;;;;;5114928;28;20186;-84
2023/05/24 07:20:33;;;;;;;9.53;8.17;;;22.00;99.90;;;;;;5126851;27;20444;-79
2023/05/24 07:23:00;;;;;;;8.50;7.70;;;22.00;99.90;;;;;;5111492;28;20256;-78
2023/05/24 07:25:26;;;;;;;9.10;8.13;;;22.00;99.90;;;;;;5094434;28;20223;-79
2023/05/24 07:27:52;;;;;;;8.73;7.83;;;22.00;99.90;;;;;;5114384;27;20775;-83
2023/05/24 07:30:19;;;;;;;10.87;8.57;;;22.20;99.90;;;;;;5106203;28;20516;-80
2023/05/24 07:32:45;;;;;;;8.83;7.00;;;22.10;99.90;;;;;;5108305;28;20425;-79
2023/05/24 07:35:15;;;;;;;8.60;7.80;;;22.20;99.90;;;;;;5102105;28;20680;-84
2023/05/24 07:37:41;;;;;;;9.17;7.93;;;22.30;99.90;;;;;;5097264;28;20179;-84
2023/05/24 07:40:10;;;;;;;9.40;7.83;;;22.40;99.90;;;;;;5088275;28;20448;-80
2023/05/24 07:42:36;;;;;;;8.67;7.77;;;22.60;99.90;;;;;;5097195;28;20423;-79
2023/05/24 07:45:02;;;;;;;10.73;7.60;;;22.70;99.90;;;;;;5115175;27;20476;-84
2023/05/24 07:47:28;;;;;;;7.90;7.00;;;22.70;99.90;;;;;;5105874;27;20997;-80
2023/05/24 07:49:53;;;;;;;7.83;7.13;;;22.60;99.90;;;;;;5126472;27;20889;-84
2023/05/24 07:52:19;;;;;;;7.37;6.67;;;22.80;99.90;;;;;;5095169;28;20177;-80
2023/05/24 07:54:45;;;;;;;7.70;7.00;;;22.80;99.90;;;;;;5107239;27;20181;-85
2023/05/24 07:57:11;;;;;;;8.03;7.23;;;22.80;99.90;;;;;;5093943;28;20175;-80
2023/05/24 07:59:37;;;;;;;7.77;6.97;;;22.90;99.90;;;;;;5093954;28;20523;-85
2023/05/24 08:02:04;;;;;;;7.50;6.50;;;23.00;99.90;;;;;;5104772;27;20584;-85
2023/05/24 08:04:34;;;;;;;7.17;6.50;;;23.00;99.90;;;;;;5114912;27;20854;-81
2023/05/24 08:07:03;;;;;;;29.23;20.83;;;23.10;99.90;;;;;;5112646;28;20431;-85
2023/05/24 08:09:34;;;;;;;10.00;9.10;;;23.00;99.90;;;;;;5097221;28;21038;-85
2023/05/24 08:12:00;;;;;;;8.57;7.67;;;23.00;99.90;;;;;;5089432;28;20428;-85
2023/05/24 08:14:26;;;;;;;7.37;6.63;;;23.00;99.90;;;;;;5092388;28;20433;-80
2023/05/24 08:16:52;;;;;;;10.20;7.63;;;22.90;99.90;;;;;;5119208;27;20496;-80
2023/05/24 08:19:18;;;;;;;9.77;8.53;;;22.80;99.90;;;;;;5086878;28;20196;-79
2023/05/24 08:21:44;;;;;;;9.90;8.07;;;22.80;99.90;;;;;;5088425;28;20226;-85
2023/05/24 08:24:10;;;;;;;12.47;9.60;;;23.00;99.90;;;;;;5098880;28;20294;-80
2023/05/24 08:26:37;;;;;;;7.80;7.00;;;23.10;99.90;;;;;;5104643;27;20496;-85
2023/05/24 08:29:03;;;;;;;8.97;8.07;;;23.20;99.90;;;;;;5086144;28;20418;-80
2023/05/24 08:31:31;;;;;;;9.93;8.87;;;23.30;99.90;;;;;;5086020;28;20560;-79
2023/05/24 08:33:57;;;;;;;12.53;8.60;;;23.40;99.90;;;;;;5085765;28;20415;-80
2023/05/24 08:36:23;;;;;;;11.90;9.00;;;23.50;99.90;;;;;;5086985;28;20450;-85
2023/05/24 08:38:48;;;;;;;9.20;8.30;;;23.50;99.90;;;;;;5083515;28;20190;-80
2023/05/24 08:41:14;;;;;;;9.33;8.40;;;23.50;99.90;;;;;;5084846;28;20207;-79
2023/05/24 08:43:42;;;;;;;9.70;8.70;;;23.50;99.90;;;;;;5084556;28;20560;-80
2023/05/24 08:46:09;;;;;;;11.10;8.57;;;23.50;99.90;;;;;;5082586;28;20462;-86
2023/05/24 08:48:45;;;;;;;11.50;8.87;;;23.50;99.90;;;;;;5092374;28;20802;-81
2023/05/24 08:51:14;;;;;;;9.60;8.23;;;23.50;99.90;;;;;;5087763;28;21068;-86
2023/05/24 08:53:41;;;;;;;9.23;8.33;;;23.60;99.90;;;;;;5079532;28;20449;-87
2023/05/24 08:56:09;;;;;;;16.40;9.93;;;23.60;99.90;;;;;;5080980;28;20480;-81
2023/05/24 08:58:39;;;;;;;13.37;10.63;;;23.60;99.90;;;;;;5088782;28;20529;-81
2023/05/24 09:01:06;;;;;;;13.07;10.20;;;23.60;99.90;;;;;;5074107;28;20445;-85
2023/05/24 09:03:32;;;;;;;11.50;10.07;;;23.70;99.90;;;;;;5085821;28;20480;-86
2023/05/24 09:05:59;;;;;;;14.93;10.20;;;23.70;99.90;;;;;;5087563;28;20439;-85
2023/05/24 09:08:27;;;;;;;12.93;10.20;;;23.80;99.90;;;;;;5085753;28;20407;-85
2023/05/24 09:10:54;;;;;;;13.20;9.70;;;23.80;99.90;;;;;;5082683;28;20848;-79
2023/05/24 09:13:21;;;;;;;21.00;11.23;;;23.90;99.90;;;;;;5084521;28;20428;-84
2023/05/24 09:15:47;;;;;;;13.53;9.57;;;23.90;99.90;;;;;;5090261;28;20482;-78
2023/05/24 09:18:12;;;;;;;10.70;9.60;;;23.90;99.90;;;;;;5090329;28;20417;-83
2023/05/24 09:20:38;;;;;;;15.73;11.00;;;23.90;99.90;;;;;;5104552;28;20194;-78
2023/05/24 09:23:06;;;;;;;11.33;9.50;;;23.90;99.90;;;;;;5089412;28;20206;-82
2023/05/24 09:25:32;;;;;;;11.73;9.77;;;23.90;99.90;;;;;;5110744;28;20244;-84
2023/05/24 09:27:57;;;;;;;31.40;13.97;;;23.90;99.90;;;;;;5093972;28;20421;-82
2023/05/24 09:30:23;;;;;;;36.33;15.87;;;23.80;99.90;;;;;;5090717;28;20604;-83
2023/05/24 09:32:56;;;;;;;26.50;12.77;;;23.80;99.90;;;;;;5108541;28;20269;-78
2023/05/24 09:35:22;;;;;;;20.20;11.10;;;23.80;99.90;;;;;;5108477;27;20199;-78
2023/05/24 09:37:48;;;;;;;19.00;10.37;;;23.80;99.90;;;;;;5112962;28;20439;-79
2023/05/24 09:40:21;;;;;;;12.27;10.00;;;23.80;99.90;;;;;;5106640;28;20197;-84
2023/05/24 09:42:50;;;;;;;12.90;11.50;;;23.80;99.90;;;;;;5104300;27;20289;-78
2023/05/24 09:45:16;;;;;;;15.60;11.57;;;23.70;99.90;;;;;;5093751;28;20571;-84
2023/05/24 09:47:44;;;;;;;12.00;10.03;;;23.70;99.90;;;;;;5091143;28;20440;-78
2023/05/24 09:50:16;;;;;;;11.63;10.50;;;23.70;99.90;;;;;;5094999;28;21011;-84
2023/05/24 09:52:42;;;;;;;11.13;10.03;;;23.70;99.90;;;;;;5113257;28;20432;-84
2023/05/24 09:55:16;;;;;;;12.73;11.53;;;23.70;99.90;;;;;;5113050;28;20436;-79
2023/05/24 09:57:50;;;;;;;69.60;48.90;;;23.70;99.90;;;;;;5111966;28;20468;-78
2023/05/24 10:00:23;;;;;;;32.73;26.13;;;23.70;99.90;;;;;;5127369;27;20531;-79
2023/05/24 10:03:11;;;;;;;27.00;22.17;;;23.80;99.90;;;;;;5124237;27;20438;-79
2023/05/24 10:05:40;;;;;;;13.57;12.27;;;23.80;99.90;;;;;;5105189;28;20476;-84
2023/05/24 10:08:08;;;;;;;11.63;10.53;;;23.80;99.90;;;;;;5105610;28;20435;-79
2023/05/24 10:10:34;;;;;;;11.47;10.47;;;23.80;99.90;;;;;;5117324;27;20852;-83
2023/05/24 10:13:01;;;;;;;12.97;11.60;;;23.70;99.90;;;;;;5084626;27;20444;-84
2023/05/24 10:15:28;;;;;;;12.00;10.70;;;23.80;99.90;;;;;;5084838;28;20820;-79
2023/05/24 10:17:55;;;;;;;13.40;12.10;;;23.80;99.90;;;;;;5111452;28;20428;-79
2023/05/24 10:20:22;;;;;;;12.33;11.13;;;23.80;99.90;;;;;;5086581;28;20851;-84
2023/05/24 10:22:51;;;;;;;12.63;11.47;;;23.80;99.90;;;;;;5114398;27;20456;-79
2023/05/24 10:25:21;;;;;;;12.83;10.40;;;23.80;99.90;;;;;;5091475;27;20536;-78
2023/05/24 10:27:50;;;;;;;12.13;10.83;;;23.80;99.90;;;;;;5095036;27;20478;-84
2023/05/24 10:30:31;;;;;;;12.80;11.60;;;23.80;99.90;;;;;;5110023;28;20442;-85
2023/05/24 10:32:59;;;;;;;12.20;11.10;;;23.80;99.90;;;;;;5120993;27;20407;-80
2023/05/24 10:35:27;;;;;;;12.50;11.20;;;23.80;99.90;;;;;;5120719;27;20513;-79
2023/05/24 10:37:53;;;;;;;13.37;11.93;;;23.90;99.90;;;;;;5111252;28;20417;-79
2023/05/24 10:40:20;;;;;;;12.93;11.67;;;23.90;99.90;;;;;;5127723;27;20479;-79
2023/05/24 10:42:47;;;;;;;12.33;11.13;;;24.00;99.90;;;;;;5093659;27;20430;-84
2023/05/24 10:45:40;;;;;;;11.60;10.57;;;24.00;99.90;;;;;;5122833;27;20473;-79
2023/05/24 10:48:12;;;;;;;11.60;10.60;;;24.10;99.90;;;;;;5081830;28;20564;-79
2023/05/24 10:50:38;;;;;;;13.20;11.00;;;24.10;99.90;;;;;;5086470;28;20989;-84
2023/05/24 10:53:14;;;;;;;12.90;11.60;;;24.10;99.90;;;;;;5085220;28;20537;-84
2023/05/24 10:55:52;;;;;;;12.43;11.13;;;24.10;99.90;;;;;;5096045;28;20494;-84
2023/05/24 10:58:19;;;;;;;11.63;10.57;;;24.20;99.90;;;;;;5087892;28;21045;-79
2023/05/24 11:00:45;;;;;;;11.77;10.57;;;24.20;99.90;;;;;;5086736;28;20822;-85
2023/05/24 11:03:12;;;;;;;11.60;10.60;;;24.20;99.90;;;;;;5105937;27;20518;-80
2023/05/24 11:05:49;;;;;;;13.30;11.33;;;24.30;99.90;;;;;;5089014;28;20465;-86
2023/05/24 11:08:42;;;;;;;11.87;10.60;;;24.30;99.90;;;;;;5090746;28;20442;-80
2023/05/24 11:11:09;;;;;;;13.00;11.70;;;24.40;99.90;;;;;;5107732;27;21048;-80
2023/05/24 11:13:39;;;;;;;11.90;10.83;;;24.40;99.90;;;;;;5122870;27;20423;-85
2023/05/24 11:16:05;;;;;;;12.07;10.97;;;24.40;99.90;;;;;;5081221;28;20998;-85
2023/05/24 11:18:32;;;;;;;11.63;10.43;;;24.40;99.90;;;;;;5107543;28;20880;-86
2023/05/24 11:21:02;;;;;;;11.50;10.30;;;24.50;99.90;;;;;;5109543;28;20438;-85
2023/05/24 11:23:29;;;;;;;11.40;10.30;;;24.60;99.90;;;;;;5105794;27;20411;-80
2023/05/24 11:25:56;;;;;;;10.67;9.70;;;24.60;99.90;;;;;;5101614;28;20469;-80
2023/05/24 11:28:22;;;;;;;11.00;9.90;;;24.60;99.90;;;;;;5086749;27;21172;-80
2023/05/24 11:30:48;;;;;;;10.50;9.50;;;24.70;99.90;;;;;;5105062;27;20490;-85
2023/05/24 11:33:17;;;;;;;11.43;10.33;;;24.70;99.90;;;;;;5095230;28;21003;-84
2023/05/24 11:35:43;;;;;;;10.27;9.27;;;24.70;99.90;;;;;;5089787;28;20452;-79
2023/05/24 11:38:13;;;;;;;9.60;8.70;;;24.70;99.90;;;;;;5107525;28;20435;-84
2023/05/24 11:40:43;;;;;;;10.50;9.60;;;24.80;99.90;;;;;;5099988;27;20474;-84
2023/05/24 11:43:20;;;;;;;11.10;10.00;;;24.70;99.90;;;;;;5114553;27;20470;-80
2023/05/24 11:45:51;;;;;;;11.50;10.30;;;24.80;99.90;;;;;;5122473;27;20470;-81
2023/05/24 11:48:18;;;;;;;10.53;9.50;;;24.90;99.90;;;;;;5103692;27;20971;-85
2023/05/24 11:50:47;;;;;;;10.47;9.57;;;24.90;99.90;;;;;;5079536;28;20448;-85
2023/05/24 11:53:17;;;;;;;10.20;9.20;;;24.90;99.90;;;;;;5085446;28;20429;-81
2023/05/24 11:55:43;;;;;;;10.37;9.37;;;24.90;99.90;;;;;;5070475;28;20419;-84
2023/05/24 11:58:28;;;;;;;10.53;9.30;;;24.90;99.90;;;;;;5117883;27;20782;-84
2023/05/24 12:00:53;;;;;;;10.83;9.67;;;25.00;99.90;;;;;;5092898;28;20210;-85
2023/05/24 12:03:20;;;;;;;9.83;8.93;;;25.00;99.90;;;;;;5087420;28;20537;-81
2023/05/24 12:05:46;;;;;;;11.97;10.50;;;25.00;99.90;;;;;;5091074;28;20630;-84
2023/05/24 12:08:14;;;;;;;9.77;8.87;;;25.00;99.90;;;;;;5124324;27;20440;-85
2023/05/24 12:10:41;;;;;;;9.50;8.60;;;25.10;99.90;;;;;;5086849;28;20460;-84
2023/05/24 12:13:24;;;;;;;10.40;9.40;;;25.10;99.90;;;;;;5091104;28;20751;-81
2023/05/24 12:15:52;;;;;;;10.40;9.40;;;25.10;99.90;;;;;;5110227;28;20470;-84
2023/05/24 12:18:24;;;;;;;10.87;8.63;;;25.10;99.90;;;;;;5111250;27;20410;-84
2023/05/24 12:20:51;;;;;;;9.80;8.83;;;25.10;99.90;;;;;;5098575;27;20456;-84
2023/05/24 12:23:28;;;;;;;10.40;9.27;;;25.10;99.90;;;;;;5096293;27;20453;-81
2023/05/24 12:26:00;;;;;;;10.20;9.30;;;25.10;99.90;;;;;;5104008;28;20458;-84
2023/05/24 12:28:30;;;;;;;10.77;9.63;;;25.10;99.90;;;;;;5121451;27;20418;-80
2023/05/24 12:30:56;;;;;;;10.10;9.10;;;25.10;99.90;;;;;;5101574;28;20496;-81
2023/05/24 12:33:24;;;;;;;8.73;7.97;;;25.10;99.90;;;;;;5095899;28;20528;-81